Hiram, Missouri
Current Conditions -  °F | °C
As of 8:53 AM on Monday 22 Dec 2014 (Local Time) from KPOF Reporting Station
Light Rain Light Rain  
Wind Chill: 40°   Ceiling: 300
Heat Index: 46°   Visibility: 3mi
Dew Point: 44°   Wind: 13mph
Humidity: 93%   Direction: 140°SE
Pressure: 29.76"   Gusts: NA
Location:  37.18°N, 90.31°W
Report Text: KPOF 221453Z AUTO 14011KT 3SM -RA BR OVC003 08/07 A2976 RMK AO2 RAE04B18 SLP082 P0003 60004 T00780067 56014
Loading
Personal Weather Stations






























Interactive Weather Map New forecast layout! Learn more

10-Day Weather Forecast

Advertisements
Track Severe Weather on mobile